createdAt,value
2017-10-23T00:01:32.975Z,1.80
2017-10-23T00:03:59.278Z,2.20
2017-10-23T00:06:25.564Z,2.30
2017-10-23T00:08:51.894Z,1.90
2017-10-23T00:11:18.159Z,2.00
2017-10-23T00:13:44.447Z,2.33
2017-10-23T00:16:10.730Z,1.83
2017-10-23T00:18:37.021Z,2.10
2017-10-23T00:21:03.351Z,3.15
2017-10-23T00:23:29.678Z,2.37
2017-10-23T00:25:55.996Z,2.58
2017-10-23T00:28:22.298Z,2.60
2017-10-23T00:30:49.325Z,2.37
2017-10-23T00:33:16.375Z,2.08
2017-10-23T00:35:42.649Z,2.42
2017-10-23T00:38:09.732Z,1.80
2017-10-23T00:40:36.025Z,2.25
2017-10-23T00:43:02.334Z,2.28
2017-10-23T00:45:28.825Z,2.55
2017-10-23T00:47:55.131Z,1.90
2017-10-23T00:50:21.427Z,2.20
2017-10-23T00:52:47.764Z,4.18
2017-10-23T00:55:14.187Z,2.25
2017-10-23T00:57:40.519Z,2.35
2017-10-23T01:00:06.803Z,2.47
2017-10-23T01:02:33.121Z,2.53
2017-10-23T01:04:59.428Z,1.92
2017-10-23T01:07:25.755Z,2.47
2017-10-23T01:09:52.062Z,1.80
2017-10-23T01:12:18.378Z,2.05
2017-10-23T01:14:44.678Z,2.00
2017-10-23T01:17:10.964Z,2.50
2017-10-23T01:19:37.982Z,2.92
2017-10-23T01:22:04.293Z,1.80
2017-10-23T01:24:34.186Z,2.28
2017-10-23T01:27:00.497Z,2.40
2017-10-23T01:29:26.832Z,2.50
2017-10-23T01:31:53.176Z,2.33
2017-10-23T01:34:19.498Z,2.30
2017-10-23T01:36:45.825Z,2.22
2017-10-23T01:39:12.161Z,2.10
2017-10-23T01:41:38.832Z,1.75
2017-10-23T01:44:05.160Z,1.90
2017-10-23T01:46:31.484Z,2.00
2017-10-23T01:48:57.862Z,2.20
2017-10-23T01:51:24.137Z,2.20
2017-10-23T01:53:51.216Z,2.10
2017-10-23T01:56:17.519Z,1.80
2017-10-23T01:58:44.175Z,2.17
2017-10-23T02:01:10.467Z,2.60
2017-10-23T02:03:37.519Z,2.40
2017-10-23T02:06:04.557Z,2.87
2017-10-23T02:08:31.560Z,2.30
2017-10-23T02:10:57.885Z,2.50
2017-10-23T02:13:24.216Z,2.60
2017-10-23T02:15:50.566Z,2.35
2017-10-23T02:18:16.877Z,3.30
2017-10-23T02:20:43.471Z,2.75
2017-10-23T02:23:09.791Z,2.90
2017-10-23T02:25:36.853Z,2.95
2017-10-23T02:28:03.150Z,2.80
2017-10-23T02:30:30.207Z,3.62
2017-10-23T02:32:57.244Z,2.87
2017-10-23T02:35:24.287Z,2.65
2017-10-23T02:37:51.326Z,1.90
2017-10-23T02:40:17.621Z,2.97
2017-10-23T02:42:43.941Z,3.47
2017-10-23T02:45:10.243Z,2.47
2017-10-23T02:47:36.556Z,2.47
2017-10-23T02:50:03.639Z,3.10
2017-10-23T02:52:29.901Z,2.12
2017-10-23T02:54:56.352Z,1.90
2017-10-23T02:57:23.395Z,2.53
2017-10-23T02:59:50.776Z,2.50
2017-10-23T03:02:17.110Z,2.92
2017-10-23T03:04:43.421Z,3.10
2017-10-23T03:07:10.494Z,3.05
2017-10-23T03:09:36.816Z,3.10
2017-10-23T03:12:03.160Z,2.53
2017-10-23T03:14:29.478Z,2.90
2017-10-23T03:16:55.797Z,3.22
2017-10-23T03:19:22.136Z,2.47
2017-10-23T03:21:48.756Z,2.72
2017-10-23T03:24:15.090Z,2.90
2017-10-23T03:26:41.429Z,3.35
2017-10-23T03:29:07.794Z,3.03
2017-10-23T03:31:34.157Z,2.75
2017-10-23T03:34:01.206Z,2.83
2017-10-23T03:36:28.277Z,2.50
2017-10-23T03:38:54.601Z,2.50
2017-10-23T03:41:20.966Z,2.50
2017-10-23T03:43:47.312Z,2.97
2017-10-23T03:46:13.690Z,3.30
2017-10-23T03:48:40.012Z,2.53
2017-10-23T03:51:06.389Z,2.87
2017-10-23T03:53:32.789Z,2.50
2017-10-23T03:55:59.130Z,2.67
2017-10-23T03:58:25.452Z,2.95
2017-10-23T04:00:51.795Z,2.50
2017-10-23T04:03:18.120Z,2.30
2017-10-23T04:05:44.460Z,2.85
2017-10-23T04:08:10.769Z,2.30
2017-10-23T04:10:37.117Z,2.67
2017-10-23T04:13:03.483Z,2.62
2017-10-23T04:15:30.547Z,3.20
2017-10-23T04:17:56.890Z,2.60
2017-10-23T04:20:23.248Z,2.50
2017-10-23T04:22:49.901Z,2.30
2017-10-23T04:25:16.235Z,2.62
2017-10-23T04:27:42.547Z,2.12
2017-10-23T04:30:08.884Z,3.05
2017-10-23T04:32:35.230Z,2.37
2017-10-23T04:35:01.557Z,2.78
2017-10-23T04:37:27.886Z,3.58
2017-10-23T04:39:54.503Z,2.37
2017-10-23T04:42:20.836Z,2.58
2017-10-23T04:44:47.152Z,2.72
2017-10-23T04:47:13.515Z,2.83
2017-10-23T04:49:39.837Z,2.72
2017-10-23T04:52:06.421Z,2.40
2017-10-23T04:54:32.782Z,2.75
2017-10-23T04:56:59.112Z,2.53
2017-10-23T04:59:25.462Z,3.65
2017-10-23T05:01:51.769Z,2.30
2017-10-23T05:04:18.114Z,2.83
2017-10-23T05:06:44.492Z,2.20
2017-10-23T05:09:10.826Z,2.85
2017-10-23T05:11:37.141Z,2.03
2017-10-23T05:14:03.461Z,3.00
2017-10-23T05:16:29.818Z,2.12
2017-10-23T05:18:56.136Z,2.62
2017-10-23T05:21:22.480Z,2.45
2017-10-23T05:23:48.831Z,2.50
2017-10-23T05:26:15.188Z,2.65
2017-10-23T05:28:42.311Z,2.20
2017-10-23T05:31:08.668Z,1.92
2017-10-23T05:33:35.758Z,2.95
2017-10-23T05:36:02.092Z,2.75
2017-10-23T05:38:28.441Z,2.60
2017-10-23T05:40:54.781Z,2.20
2017-10-23T05:43:21.114Z,2.80
2017-10-23T05:45:47.438Z,2.53
2017-10-23T05:48:13.838Z,2.80
2017-10-23T05:50:40.173Z,2.33
2017-10-23T05:53:06.540Z,2.17
2017-10-23T05:55:33.732Z,2.33
2017-10-23T05:58:00.025Z,2.50
2017-10-23T06:00:27.126Z,2.62
2017-10-23T06:02:53.450Z,2.33
2017-10-23T06:05:19.796Z,2.70
2017-10-23T06:07:46.114Z,2.78
2017-10-23T06:10:12.438Z,2.75
2017-10-23T06:12:38.808Z,2.92
2017-10-23T06:15:05.186Z,3.20
2017-10-23T06:17:32.255Z,3.20
2017-10-23T06:19:58.628Z,3.30
2017-10-23T06:22:25.005Z,3.55
2017-10-23T06:24:51.381Z,2.75
2017-10-23T06:27:18.498Z,3.60
2017-10-23T06:29:44.846Z,2.70
2017-10-23T06:32:11.482Z,3.25
2017-10-23T06:34:37.806Z,2.62
2017-10-23T06:37:04.429Z,3.08
2017-10-23T06:39:30.853Z,2.95
2017-10-23T06:41:57.181Z,4.15
2017-10-23T06:44:23.849Z,3.70
2017-10-23T06:46:50.218Z,4.00
2017-10-23T06:49:16.540Z,3.30
2017-10-23T06:51:42.900Z,1.80
2017-10-23T06:54:34.513Z,2.30
2017-10-23T06:57:01.194Z,2.37
2017-10-23T06:59:27.637Z,2.55
2017-10-23T07:01:54.354Z,3.05
2017-10-23T07:04:21.559Z,2.25
2017-10-23T07:06:47.969Z,2.20
2017-10-23T07:09:15.233Z,2.85
2017-10-23T07:11:41.719Z,3.40
2017-10-23T07:14:08.898Z,3.00
2017-10-23T07:16:35.311Z,2.83
2017-10-23T07:19:02.697Z,3.50
2017-10-23T07:21:29.143Z,3.12
2017-10-23T07:23:55.530Z,3.40
2017-10-23T07:26:22.687Z,2.12
2017-10-23T07:28:49.014Z,2.37
2017-10-23T07:31:15.414Z,3.22
2017-10-23T07:33:42.568Z,2.55
2017-10-23T07:36:08.957Z,2.90
2017-10-23T07:38:35.380Z,2.60
2017-10-23T07:41:01.720Z,2.60
2017-10-23T07:43:28.091Z,3.37
2017-10-23T07:45:54.440Z,3.20
2017-10-23T07:48:21.821Z,2.67
2017-10-23T07:50:48.150Z,3.25
2017-10-23T07:53:14.461Z,3.35
2017-10-23T07:55:40.816Z,13.48
2017-10-23T07:58:07.132Z,3.35
2017-10-23T08:00:33.489Z,3.22
2017-10-23T08:02:59.848Z,2.50
2017-10-23T08:05:26.159Z,2.00
2017-10-23T08:07:52.470Z,3.03
2017-10-23T08:10:19.080Z,2.40
2017-10-23T08:12:45.376Z,2.92
2017-10-23T08:15:12.412Z,2.37
2017-10-23T08:17:38.733Z,2.47
2017-10-23T08:20:05.032Z,2.35
2017-10-23T08:22:31.352Z,3.35
2017-10-23T08:24:57.662Z,2.65
2017-10-23T08:27:24.306Z,3.00
2017-10-23T08:29:50.606Z,2.70
2017-10-23T08:32:17.647Z,2.28
2017-10-23T08:34:44.714Z,2.85
2017-10-23T08:37:11.006Z,2.67
2017-10-23T08:39:37.342Z,3.65
2017-10-23T08:42:03.679Z,2.50
2017-10-23T08:44:30.725Z,2.83
2017-10-23T08:46:57.754Z,2.20
2017-10-23T08:49:24.063Z,3.35
2017-10-23T08:51:50.426Z,2.58
2017-10-23T08:54:17.573Z,3.00
2017-10-23T08:56:44.654Z,2.87
2017-10-23T08:59:10.985Z,3.05
2017-10-23T09:01:37.611Z,2.80
2017-10-23T09:04:03.939Z,2.92
2017-10-23T09:06:30.228Z,3.92
2017-10-23T09:08:56.547Z,3.22
2017-10-23T09:11:22.849Z,3.20
2017-10-23T09:13:49.196Z,5.32
2017-10-23T09:16:15.542Z,2.92
2017-10-23T09:18:42.665Z,4.07
2017-10-23T09:21:08.994Z,3.40
2017-10-23T09:23:35.595Z,4.40
2017-10-23T09:26:01.878Z,3.33
2017-10-23T09:28:28.162Z,3.60
2017-10-23T09:30:54.477Z,3.10
2017-10-23T09:33:20.733Z,3.10
2017-10-23T09:35:47.064Z,4.78
2017-10-23T09:38:13.377Z,3.12
2017-10-23T09:40:39.701Z,3.45
2017-10-23T09:43:05.975Z,3.97
2017-10-23T09:45:32.279Z,4.05
2017-10-23T09:47:58.580Z,4.18
2017-10-23T09:50:24.896Z,3.05
2017-10-23T09:52:51.205Z,3.78
2017-10-23T09:55:18.311Z,3.60
2017-10-23T09:57:44.657Z,3.75
2017-10-23T10:00:10.969Z,4.07
2017-10-23T10:02:37.586Z,3.83
2017-10-23T10:05:03.874Z,3.90
2017-10-23T10:07:30.889Z,3.53
2017-10-23T10:09:57.197Z,2.95
2017-10-23T10:12:23.515Z,3.20
2017-10-23T10:14:49.819Z,3.95
2017-10-23T10:17:16.113Z,4.30
2017-10-23T10:19:42.420Z,3.87
2017-10-23T10:22:08.721Z,4.10
2017-10-23T10:24:35.058Z,3.45
2017-10-23T10:27:01.355Z,3.30
2017-10-23T10:29:28.393Z,3.53
2017-10-23T10:31:55.456Z,3.45
2017-10-23T10:34:21.780Z,3.85
2017-10-23T10:36:48.078Z,4.50
2017-10-23T10:39:14.452Z,2.87
2017-10-23T10:41:40.765Z,2.95
2017-10-23T10:44:07.779Z,3.80
2017-10-23T10:46:34.088Z,3.83
2017-10-23T10:49:00.444Z,3.78
2017-10-23T10:51:27.495Z,3.60
2017-10-23T10:53:54.630Z,4.53
2017-10-23T10:56:20.952Z,3.65
2017-10-23T10:58:47.258Z,3.78
2017-10-23T11:01:13.545Z,3.60
2017-10-23T11:03:39.854Z,3.65
2017-10-23T11:06:06.927Z,3.47
2017-10-23T11:08:33.239Z,4.37
2017-10-23T11:11:00.310Z,4.60
2017-10-23T11:13:26.663Z,4.20
2017-10-23T11:15:52.986Z,3.70
2017-10-23T11:18:19.318Z,3.50
2017-10-23T11:20:45.948Z,4.15
2017-10-23T11:23:12.304Z,3.17
2017-10-23T11:25:38.628Z,3.72
2017-10-23T11:28:04.974Z,3.50
2017-10-23T11:30:31.296Z,3.55
2017-10-23T11:33:01.433Z,3.67
2017-10-23T11:35:28.475Z,2.95
2017-10-23T11:37:55.521Z,3.22
2017-10-23T11:40:22.606Z,4.03
2017-10-23T11:42:49.187Z,3.33
2017-10-23T11:45:15.509Z,3.17
2017-10-23T11:47:41.793Z,3.40
2017-10-23T11:50:08.095Z,3.75
2017-10-23T11:52:35.124Z,2.78
2017-10-23T11:55:01.526Z,3.08
2017-10-23T11:57:27.843Z,3.58
2017-10-23T11:59:54.140Z,2.90
2017-10-23T12:02:20.438Z,3.92
2017-10-23T12:04:46.754Z,3.30
2017-10-23T12:07:13.076Z,3.20
2017-10-23T12:09:39.383Z,3.15
2017-10-23T12:12:05.693Z,3.92
2017-10-23T12:14:32.001Z,2.75
2017-10-23T12:16:59.386Z,2.97
2017-10-23T12:19:25.728Z,3.20
2017-10-23T12:21:55.693Z,2.60
2017-10-23T12:24:23.028Z,3.30
2017-10-23T12:26:49.353Z,3.77
2017-10-23T12:29:15.707Z,3.42
2017-10-23T12:31:42.950Z,3.13
2017-10-23T12:34:10.335Z,3.42
2017-10-23T12:36:36.664Z,3.37
2017-10-23T12:39:03.013Z,3.70
2017-10-23T12:41:29.369Z,3.07
2017-10-23T12:43:55.696Z,2.60
2017-10-23T12:46:22.031Z,2.53
2017-10-23T12:48:48.302Z,2.78
2017-10-23T12:51:14.937Z,2.78
2017-10-23T12:53:41.305Z,2.80
2017-10-23T12:56:07.621Z,2.95
2017-10-23T12:58:33.977Z,3.05
2017-10-23T13:01:00.315Z,2.87
2017-10-23T13:03:26.642Z,2.78
2017-10-23T13:05:52.965Z,3.30
2017-10-23T13:08:25.261Z,3.40
2017-10-23T13:10:52.319Z,3.25
2017-10-23T13:13:18.632Z,3.22
2017-10-23T13:15:45.688Z,2.53
2017-10-23T13:18:12.750Z,3.28
2017-10-23T13:20:39.076Z,2.65
2017-10-23T13:23:05.369Z,2.62
2017-10-23T13:25:31.629Z,2.58
2017-10-23T13:27:57.938Z,2.75
2017-10-23T13:30:25.033Z,2.95
2017-10-23T13:32:51.342Z,3.28
2017-10-23T13:35:17.669Z,3.80
2017-10-23T13:37:43.997Z,3.03
2017-10-23T13:40:10.326Z,4.18
2017-10-23T13:42:36.614Z,3.35
2017-10-23T13:45:02.945Z,3.40
2017-10-23T13:47:29.286Z,3.20
2017-10-23T13:49:55.639Z,3.20
2017-10-23T13:52:21.950Z,3.22
2017-10-23T13:54:49.068Z,2.75
2017-10-23T13:57:15.388Z,3.45
2017-10-23T13:59:41.699Z,3.28
2017-10-23T14:02:07.973Z,4.22
2017-10-23T14:04:35.024Z,3.60
2017-10-23T14:07:02.060Z,3.80
2017-10-23T14:09:28.363Z,3.40
2017-10-23T14:11:54.727Z,3.45
2017-10-23T14:14:21.796Z,3.35
2017-10-23T14:16:48.103Z,3.35
2017-10-23T14:19:14.430Z,2.80
2017-10-23T14:21:41.559Z,4.05
2017-10-23T14:24:07.915Z,3.35
2017-10-23T14:26:34.992Z,4.15
2017-10-23T14:29:01.313Z,4.05
2017-10-23T14:31:27.664Z,3.67
2017-10-23T14:33:53.979Z,3.15
2017-10-23T14:36:20.333Z,3.25
2017-10-23T14:38:46.681Z,3.80
2017-10-23T14:41:13.109Z,2.83
2017-10-23T14:43:39.489Z,3.60
2017-10-23T14:46:05.807Z,3.33
2017-10-23T14:48:32.179Z,3.60
2017-10-23T14:50:58.539Z,3.42
2017-10-23T14:53:25.718Z,3.42
2017-10-23T14:55:52.085Z,4.18
2017-10-23T14:58:18.423Z,2.78
2017-10-23T15:00:45.535Z,3.60
2017-10-23T15:03:11.902Z,3.47
2017-10-23T15:05:38.228Z,3.70
2017-10-23T15:08:04.573Z,3.60
2017-10-23T15:10:30.947Z,2.95
2017-10-23T15:12:57.252Z,3.85
2017-10-23T15:15:24.371Z,3.70
2017-10-23T15:17:50.692Z,3.05
2017-10-23T15:20:17.065Z,3.03
2017-10-23T15:22:44.117Z,3.60
2017-10-23T15:25:10.478Z,4.20
2017-10-23T15:27:36.851Z,3.35
2017-10-23T15:30:03.186Z,3.60
2017-10-23T15:32:30.247Z,3.75
2017-10-23T15:34:56.535Z,3.80
2017-10-23T15:37:22.881Z,3.83
2017-10-23T15:39:49.199Z,4.30
2017-10-23T15:42:15.551Z,3.78
2017-10-23T15:44:42.628Z,3.70
2017-10-23T15:47:08.920Z,4.65
2017-10-23T15:49:36.006Z,2.80
2017-10-23T15:52:02.341Z,3.50
2017-10-23T15:54:28.709Z,3.53
2017-10-23T15:56:55.033Z,3.30
2017-10-23T15:59:21.328Z,3.00
2017-10-23T16:01:47.644Z,4.12
2017-10-23T16:04:13.938Z,2.90
2017-10-23T16:06:40.978Z,2.92
2017-10-23T16:09:07.238Z,2.78
2017-10-23T16:11:33.544Z,3.05
2017-10-23T16:14:01.761Z,2.70
2017-10-23T16:16:28.088Z,2.80
2017-10-23T16:18:54.505Z,2.92
2017-10-23T16:21:20.781Z,3.40
2017-10-23T16:23:47.105Z,3.10
2017-10-23T16:26:13.468Z,3.37
2017-10-23T16:28:40.524Z,2.90
2017-10-23T16:31:06.860Z,2.97
2017-10-23T16:33:33.214Z,4.28
2017-10-23T16:35:59.568Z,3.30
2017-10-23T16:38:25.886Z,2.90
2017-10-23T16:40:52.263Z,3.40
2017-10-23T16:43:19.309Z,3.50
2017-10-23T16:45:46.484Z,3.50
2017-10-23T16:48:12.828Z,3.28
2017-10-23T16:50:39.213Z,3.75
2017-10-23T16:53:06.332Z,3.50
2017-10-23T16:55:32.771Z,3.12
2017-10-23T16:57:59.085Z,3.80
2017-10-23T17:00:25.413Z,3.33
2017-10-23T17:02:51.730Z,4.50
2017-10-23T17:05:18.089Z,3.42
2017-10-23T17:07:44.424Z,3.65
2017-10-23T17:10:10.748Z,4.25
2017-10-23T17:12:37.070Z,3.55
2017-10-23T17:15:03.404Z,4.05
2017-10-23T17:17:30.440Z,3.55
2017-10-23T17:19:56.767Z,3.90
2017-10-23T17:22:23.133Z,4.30
2017-10-23T17:24:49.465Z,4.30
2017-10-23T17:27:15.808Z,4.18
2017-10-23T17:29:42.337Z,3.78
2017-10-23T17:32:08.729Z,5.70
2017-10-23T17:34:35.789Z,4.40
2017-10-23T17:37:02.885Z,4.07
2017-10-23T17:39:29.216Z,4.70
2017-10-23T17:41:55.562Z,4.10
2017-10-23T17:44:21.860Z,4.12
2017-10-23T17:46:48.234Z,4.10
2017-10-23T17:49:14.552Z,3.60
2017-10-23T17:51:41.179Z,3.72
2017-10-23T17:54:07.796Z,4.55
2017-10-23T17:56:34.186Z,4.15
2017-10-23T17:59:01.564Z,3.60
2017-10-23T18:01:27.983Z,4.20
2017-10-23T18:03:54.451Z,4.25
2017-10-23T18:06:20.782Z,4.47
2017-10-23T18:08:47.188Z,4.12
2017-10-23T18:11:13.543Z,4.57
2017-10-23T18:13:39.948Z,4.70
2017-10-23T18:16:06.315Z,4.20
2017-10-23T18:18:32.643Z,4.37
2017-10-23T18:20:58.995Z,4.10
2017-10-23T18:23:25.350Z,4.50
2017-10-23T18:25:52.480Z,4.28
2017-10-23T18:28:18.907Z,4.78
2017-10-23T18:30:46.039Z,4.72
2017-10-23T18:33:12.376Z,4.30
2017-10-23T18:35:38.806Z,5.20
2017-10-23T18:38:05.196Z,5.15
2017-10-23T18:40:31.602Z,5.68
2017-10-23T18:42:58.027Z,5.03
2017-10-23T18:45:24.335Z,5.82
2017-10-23T18:47:51.483Z,5.30
2017-10-23T18:50:18.625Z,5.60
2017-10-23T18:52:45.869Z,5.55
2017-10-23T18:55:12.375Z,6.47
2017-10-23T18:57:38.787Z,5.62
2017-10-23T19:00:05.218Z,6.03
2017-10-23T19:02:31.610Z,6.37
2017-10-23T19:04:58.777Z,6.68
2017-10-23T19:07:25.180Z,6.18
2017-10-23T19:09:51.620Z,6.47
2017-10-23T19:12:18.774Z,6.97
2017-10-23T19:14:46.059Z,6.37
2017-10-23T19:17:12.821Z,7.25
2017-10-23T19:19:39.220Z,7.40
2017-10-23T19:22:05.612Z,7.10
2017-10-23T19:24:32.009Z,6.40
2017-10-23T19:26:58.418Z,6.35
2017-10-23T19:29:24.935Z,6.60
2017-10-23T19:31:51.619Z,6.70
2017-10-23T19:34:17.997Z,7.60
2017-10-23T19:36:44.366Z,7.53
2017-10-23T19:39:10.734Z,7.10
2017-10-23T19:41:37.924Z,6.80
2017-10-23T19:44:04.475Z,6.53
2017-10-23T19:46:30.881Z,6.30
2017-10-23T19:48:57.318Z,6.45
2017-10-23T19:51:23.708Z,6.12
2017-10-23T19:53:50.920Z,7.30
2017-10-23T19:56:17.304Z,6.25
2017-10-23T19:58:43.664Z,6.22
2017-10-23T20:01:10.014Z,6.70
2017-10-23T20:03:36.468Z,5.45
2017-10-23T20:06:02.889Z,7.03
2017-10-23T20:08:29.268Z,5.37
2017-10-23T20:10:55.614Z,5.65
2017-10-23T20:13:21.982Z,5.50
2017-10-23T20:15:48.288Z,5.85
2017-10-23T20:18:14.597Z,6.18
2017-10-23T20:20:40.940Z,5.90
2017-10-23T20:23:07.336Z,5.60
2017-10-23T20:25:33.718Z,5.90
2017-10-23T20:28:00.200Z,5.53
2017-10-23T20:30:26.508Z,5.45
2017-10-23T20:32:53.575Z,5.60
2017-10-23T20:35:19.892Z,6.07
2017-10-23T20:37:46.210Z,5.95
2017-10-23T20:40:13.307Z,6.40
2017-10-23T20:42:39.643Z,6.10
2017-10-23T20:45:06.063Z,6.90
2017-10-23T20:47:32.401Z,6.32
2017-10-23T20:49:58.642Z,5.57
2017-10-23T20:52:24.943Z,6.22
2017-10-23T20:54:51.679Z,6.80
2017-10-23T20:57:18.010Z,5.68
2017-10-23T20:59:44.326Z,6.43
2017-10-23T21:02:10.676Z,5.37
2017-10-23T21:04:37.015Z,5.53
2017-10-23T21:07:03.343Z,6.10
2017-10-23T21:09:29.686Z,5.35
2017-10-23T21:11:56.050Z,5.72
2017-10-23T21:14:23.101Z,6.40
2017-10-23T21:16:50.155Z,6.35
2017-10-23T21:19:16.517Z,5.95
2017-10-23T21:21:42.878Z,6.00
2017-10-23T21:24:09.232Z,6.57
2017-10-23T21:26:36.277Z,5.43
2017-10-23T21:29:03.332Z,6.10
2017-10-23T21:31:29.654Z,5.82
2017-10-23T21:33:56.733Z,5.95
2017-10-23T21:36:23.034Z,5.53
2017-10-23T21:38:49.345Z,5.82
2017-10-23T21:41:16.435Z,5.62
2017-10-23T21:43:42.729Z,5.10
2017-10-23T21:46:09.814Z,5.15
2017-10-23T21:48:36.126Z,6.20
2017-10-23T21:51:02.413Z,5.75
2017-10-23T21:53:29.066Z,6.10
2017-10-23T21:55:56.086Z,5.22
2017-10-23T21:58:22.420Z,6.00
2017-10-23T22:00:48.767Z,5.37
2017-10-23T22:03:15.813Z,5.35
2017-10-23T22:05:42.928Z,5.53
2017-10-23T22:08:09.231Z,5.45
2017-10-23T22:10:35.561Z,6.03
2017-10-23T22:13:01.863Z,5.75
2017-10-23T22:15:28.148Z,6.43
2017-10-23T22:17:54.380Z,5.90
2017-10-23T22:20:20.670Z,7.10
2017-10-23T22:22:46.985Z,6.25
2017-10-23T22:25:13.265Z,5.95
2017-10-23T22:27:39.579Z,5.80
2017-10-23T22:30:05.866Z,6.45
2017-10-23T22:32:32.181Z,6.50
2017-10-23T22:34:58.498Z,7.30
2017-10-23T22:37:25.523Z,6.57
2017-10-23T22:39:51.836Z,6.47
2017-10-23T22:42:18.148Z,6.05
2017-10-23T22:44:44.460Z,6.25
2017-10-23T22:47:10.750Z,6.72
2017-10-23T22:49:37.034Z,5.62
2017-10-23T22:52:03.343Z,6.40
2017-10-23T22:54:30.435Z,6.90
2017-10-23T22:56:56.728Z,5.75
2017-10-23T22:59:23.044Z,6.37
2017-10-23T23:01:49.349Z,6.80
2017-10-23T23:04:16.370Z,6.78
2017-10-23T23:06:42.715Z,6.62
2017-10-23T23:09:09.798Z,6.30
2017-10-23T23:11:36.115Z,6.45
2017-10-23T23:14:02.425Z,6.18
2017-10-23T23:16:29.077Z,6.57
2017-10-23T23:18:55.350Z,6.47
2017-10-23T23:21:21.644Z,6.15
2017-10-23T23:23:47.980Z,6.20
2017-10-23T23:26:14.290Z,6.57
2017-10-23T23:28:40.605Z,6.22
2017-10-23T23:31:07.578Z,5.97
2017-10-23T23:33:33.883Z,5.68
2017-10-23T23:36:00.945Z,6.35
2017-10-23T23:38:27.270Z,6.30
2017-10-23T23:40:53.586Z,6.35
2017-10-23T23:43:19.867Z,5.95
2017-10-23T23:45:46.169Z,6.00
2017-10-23T23:48:12.443Z,5.45
2017-10-23T23:50:38.745Z,6.00
2017-10-23T23:53:05.021Z,6.55
2017-10-23T23:55:32.103Z,6.00
2017-10-23T23:57:58.414Z,5.90
